createdAt,value
2022-12-29T00:02:14.484Z,100088.85
2022-12-29T00:04:47.027Z,100083.14
2022-12-29T00:07:19.683Z,100078.20
2022-12-29T00:09:52.012Z,100076.10
2022-12-29T00:12:24.513Z,100074.00
2022-12-29T00:15:14.215Z,100075.89
2022-12-29T00:17:46.552Z,100071.86
2022-12-29T00:20:36.811Z,100060.90
2022-12-29T00:23:27.915Z,100058.69
2022-12-29T00:26:26.286Z,100046.84
2022-12-29T00:29:15.920Z,100056.73
2022-12-29T00:32:06.346Z,100050.39
2022-12-29T00:34:57.500Z,100052.45
2022-12-29T00:37:44.292Z,100055.02
2022-12-29T00:40:34.394Z,100045.75
2022-12-29T00:43:24.489Z,100047.92
2022-12-29T00:45:57.076Z,100048.55
2022-12-29T00:48:49.011Z,100043.92
2022-12-29T00:51:21.384Z,100042.85
2022-12-29T00:53:53.804Z,100031.81
2022-12-29T00:56:26.239Z,100026.77
2022-12-29T00:59:01.777Z,100027.33
2022-12-29T01:01:34.618Z,100028.02
2022-12-29T01:04:07.528Z,100028.42
2022-12-29T01:06:41.998Z,100008.28
2022-12-29T01:09:32.119Z,100022.86
2022-12-29T01:12:04.628Z,100024.98
2022-12-29T01:14:37.247Z,100021.95
2022-12-29T01:17:10.239Z,100022.32
2022-12-29T01:19:42.693Z,100019.94
2022-12-29T01:22:15.129Z,100022.16
2022-12-29T01:24:47.881Z,100015.95
2022-12-29T01:27:20.554Z,100016.73
2022-12-29T01:29:52.923Z,100011.96
2022-12-29T01:32:25.257Z,100011.60
2022-12-29T01:34:57.677Z,100012.55
2022-12-29T01:37:32.609Z,100017.90
2022-12-29T01:40:05.583Z,100021.36
2022-12-29T01:42:38.223Z,100019.12
2022-12-29T01:45:15.790Z,100012.00
2022-12-29T01:47:54.500Z,100013.92
2022-12-29T01:50:34.518Z,100005.98
2022-12-29T01:53:11.829Z,100005.92
2022-12-29T01:55:48.907Z,100004.41
2022-12-29T01:58:25.484Z,99993.95
2022-12-29T02:00:58.128Z,99985.54
2022-12-29T02:03:33.638Z,99983.14
2022-12-29T02:06:10.656Z,99978.23
2022-12-29T02:08:46.389Z,99973.55
2022-12-29T02:11:19.854Z,99968.00
2022-12-29T02:13:52.286Z,99966.55
2022-12-29T02:16:38.929Z,99968.84
2022-12-29T02:19:35.912Z,99967.81
2022-12-29T02:22:18.585Z,99965.31
2022-12-29T02:25:42.048Z,99963.09
2022-12-29T02:28:45.571Z,99961.58
2022-12-29T02:31:27.388Z,99960.14
2022-12-29T02:34:09.259Z,99965.13
2022-12-29T02:36:47.293Z,99955.22
2022-12-29T02:39:29.010Z,99954.13
2022-12-29T02:42:09.945Z,99957.90
2022-12-29T02:44:53.927Z,99955.80
2022-12-29T02:47:37.865Z,99945.23
2022-12-29T02:50:17.599Z,99944.55
2022-12-29T02:52:56.592Z,99939.56
2022-12-29T02:55:28.921Z,99943.45
2022-12-29T02:58:21.055Z,99933.13
2022-12-29T03:01:17.043Z,99928.46
2022-12-29T03:04:08.828Z,99922.69
2022-12-29T03:06:53.306Z,99920.45
2022-12-29T03:09:36.944Z,99915.94
2022-12-29T03:12:23.009Z,99916.94
2022-12-29T03:15:21.678Z,99913.05
2022-12-29T03:18:00.287Z,99911.92
2022-12-29T03:20:42.846Z,99913.07
2022-12-29T03:23:16.516Z,99908.20
2022-12-29T03:25:53.560Z,99911.77
2022-12-29T03:28:30.133Z,99914.39
2022-12-29T03:31:06.155Z,99900.49
2022-12-29T03:33:41.720Z,99920.18
2022-12-29T03:36:22.389Z,99919.19
2022-12-29T03:39:01.861Z,99917.17
2022-12-29T03:41:36.620Z,99915.69
2022-12-29T03:44:11.915Z,99911.66
2022-12-29T03:46:45.312Z,99910.58
2022-12-29T03:49:18.216Z,99905.28
2022-12-29T03:51:52.018Z,99903.81
2022-12-29T03:54:24.005Z,99900.36
2022-12-29T03:56:56.338Z,99901.30
2022-12-29T03:59:37.934Z,99900.34
2022-12-29T04:02:10.461Z,99895.60
2022-12-29T04:04:43.517Z,99894.92
2022-12-29T04:07:16.235Z,99884.39
2022-12-29T04:09:48.981Z,99883.27
2022-12-29T04:12:26.699Z,99881.52
2022-12-29T04:14:59.555Z,99874.70
2022-12-29T04:17:35.178Z,99876.50
2022-12-29T04:20:28.212Z,99873.36
2022-12-29T04:23:05.915Z,99870.54
2022-12-29T04:25:40.421Z,99870.30
2022-12-29T04:28:14.614Z,99861.81
2022-12-29T04:30:50.754Z,99863.80
2022-12-29T04:33:26.688Z,99869.52
2022-12-29T04:35:59.720Z,99855.16
2022-12-29T04:38:34.390Z,99875.67
2022-12-29T04:41:09.786Z,99874.72
2022-12-29T04:43:44.361Z,99869.61
2022-12-29T04:46:34.896Z,99865.46
2022-12-29T04:49:16.518Z,99855.96
2022-12-29T04:51:58.866Z,99864.65
2022-12-29T04:54:31.606Z,99864.80
2022-12-29T04:57:13.190Z,99866.70
2022-12-29T04:59:45.781Z,99865.04
2022-12-29T05:02:18.864Z,99840.62
2022-12-29T05:04:52.514Z,99857.20
2022-12-29T05:07:26.167Z,99848.57
2022-12-29T05:09:59.974Z,99848.35
2022-12-29T05:12:35.128Z,99829.59
2022-12-29T05:15:10.991Z,99838.05
2022-12-29T05:17:44.315Z,99829.84
2022-12-29T05:20:17.585Z,99822.83
2022-12-29T05:22:50.646Z,99818.02
2022-12-29T05:25:23.000Z,99816.45
2022-12-29T05:28:36.018Z,99814.63
2022-12-29T05:31:17.663Z,99812.48
2022-12-29T05:33:50.981Z,99813.56
2022-12-29T05:36:26.020Z,99816.05
2022-12-29T05:39:01.822Z,99813.73
2022-12-29T05:41:35.418Z,99813.83
2022-12-29T05:44:26.277Z,99812.34
2022-12-29T05:47:33.856Z,99814.84
2022-12-29T05:50:27.971Z,99806.52
2022-12-29T05:53:14.600Z,99810.38
2022-12-29T05:55:49.311Z,99806.58
2022-12-29T05:58:23.004Z,99798.28
2022-12-29T06:00:56.037Z,99797.02
2022-12-29T06:03:28.588Z,99800.80
2022-12-29T06:06:01.331Z,99801.77
2022-12-29T06:08:33.997Z,99791.34
2022-12-29T06:11:07.409Z,99809.17
2022-12-29T06:13:41.227Z,99805.90
2022-12-29T06:16:13.997Z,99809.83
2022-12-29T06:18:47.889Z,99810.59
2022-12-29T06:21:20.447Z,99807.59
2022-12-29T06:23:52.938Z,99810.14
2022-12-29T06:26:26.650Z,99810.89
2022-12-29T06:28:59.275Z,99816.50
2022-12-29T06:31:31.836Z,99827.20
2022-12-29T06:34:08.351Z,99826.80
2022-12-29T06:36:42.775Z,99828.25
2022-12-29T06:39:15.639Z,99828.61
2022-12-29T06:41:57.280Z,99836.77
2022-12-29T06:44:47.642Z,99830.72
2022-12-29T06:47:20.861Z,99819.75
2022-12-29T06:49:53.288Z,99821.09
2022-12-29T06:52:26.073Z,99820.86
2022-12-29T06:54:59.958Z,99811.92
2022-12-29T06:57:41.101Z,99822.38
2022-12-29T07:00:22.506Z,99828.75
2022-12-29T07:02:56.940Z,99824.40
2022-12-29T07:05:32.561Z,99825.01
2022-12-29T07:08:05.357Z,99833.44
2022-12-29T07:10:37.720Z,99834.61
2022-12-29T07:13:10.385Z,99836.95
2022-12-29T07:15:43.109Z,99836.13
2022-12-29T07:18:15.642Z,99830.71
2022-12-29T07:20:48.016Z,99830.05
2022-12-29T07:23:20.758Z,99837.04
2022-12-29T07:26:00.584Z,99831.88
2022-12-29T07:28:33.482Z,99830.05
2022-12-29T07:31:06.797Z,99829.73
2022-12-29T07:33:39.792Z,99832.09
2022-12-29T07:36:12.778Z,99824.79
2022-12-29T07:38:46.046Z,99823.30
2022-12-29T07:41:19.193Z,99825.27
2022-12-29T07:43:53.116Z,99824.78
2022-12-29T07:46:55.336Z,99824.48
2022-12-29T07:49:29.600Z,99819.67
2022-12-29T07:52:02.046Z,99818.66
2022-12-29T07:54:34.615Z,99833.20
2022-12-29T07:57:08.571Z,99838.63
2022-12-29T07:59:41.000Z,99833.25
2022-12-29T08:02:14.529Z,99825.36
2022-12-29T08:04:47.087Z,99829.89
2022-12-29T08:07:19.442Z,99826.32
2022-12-29T08:09:51.831Z,99823.44
2022-12-29T08:12:24.567Z,99827.95
2022-12-29T08:14:56.961Z,99815.61
2022-12-29T08:17:29.433Z,99836.48
2022-12-29T08:20:01.832Z,99829.17
2022-12-29T08:22:34.203Z,99826.98
2022-12-29T08:25:07.507Z,99835.60
2022-12-29T08:27:40.031Z,99829.68
2022-12-29T08:30:14.652Z,99828.76
2022-12-29T08:32:46.684Z,99828.04
2022-12-29T08:35:29.023Z,99829.83
2022-12-29T08:38:01.741Z,99838.33
2022-12-29T08:40:34.178Z,99837.58
2022-12-29T08:43:08.864Z,99837.91
2022-12-29T08:45:41.416Z,99837.06
2022-12-29T08:48:14.333Z,99838.97
2022-12-29T08:50:48.534Z,99835.17
2022-12-29T08:53:21.316Z,99834.55
2022-12-29T08:56:04.969Z,99831.51
2022-12-29T08:58:41.637Z,99839.20
2022-12-29T09:01:14.484Z,99840.58
2022-12-29T09:06:40.754Z,99841.33
2022-12-29T09:09:13.705Z,99837.50
2022-12-29T09:11:46.442Z,99830.16
2022-12-29T09:14:18.875Z,99832.55
2022-12-29T09:17:10.625Z,99814.45
2022-12-29T09:19:44.124Z,99831.13
2022-12-29T09:22:16.522Z,99822.05
2022-12-29T09:24:49.021Z,99817.70
2022-12-29T09:27:21.862Z,99825.16
2022-12-29T09:29:54.476Z,99828.91
2022-12-29T09:32:36.842Z,99828.73
2022-12-29T09:35:11.908Z,99826.77
2022-12-29T09:37:44.504Z,99807.59
2022-12-29T09:40:30.250Z,99825.13
2022-12-29T09:43:19.890Z,99826.09
2022-12-29T09:46:00.549Z,99807.92
2022-12-29T09:48:37.030Z,99813.70
2022-12-29T09:51:15.635Z,99823.46
2022-12-29T09:53:54.266Z,99821.16
2022-12-29T09:56:30.565Z,99813.05
2022-12-29T09:59:09.780Z,99813.66
2022-12-29T10:01:48.131Z,99816.98
2022-12-29T10:04:20.711Z,99811.46
2022-12-29T10:10:03.747Z,99814.57
2022-12-29T10:12:50.460Z,99812.40
2022-12-29T10:15:45.325Z,99806.40
2022-12-29T10:18:34.662Z,99804.91
2022-12-29T10:21:15.510Z,99808.20
2022-12-29T10:23:51.143Z,99809.14
2022-12-29T10:26:27.976Z,99809.09
2022-12-29T10:29:05.112Z,99805.19
2022-12-29T10:31:40.956Z,99796.95
2022-12-29T10:34:22.193Z,99791.83
2022-12-29T10:36:59.418Z,99795.88
2022-12-29T10:39:36.662Z,99785.70
2022-12-29T10:42:16.116Z,99783.73
2022-12-29T10:44:48.875Z,99796.52
2022-12-29T10:47:25.831Z,99791.92
2022-12-29T10:49:59.472Z,99788.63
2022-12-29T10:52:33.418Z,99784.18
2022-12-29T10:55:12.364Z,99773.16
2022-12-29T10:57:47.635Z,99786.71
2022-12-29T11:00:23.987Z,99789.62
2022-12-29T11:03:18.489Z,99783.52
2022-12-29T11:05:57.161Z,99776.20
2022-12-29T11:08:35.563Z,99778.48
2022-12-29T11:11:10.490Z,99773.90
2022-12-29T11:13:53.360Z,99767.71
2022-12-29T11:16:33.909Z,99769.78
2022-12-29T11:19:06.525Z,99766.21
2022-12-29T11:21:41.545Z,99757.38
2022-12-29T11:24:25.643Z,99761.13
2022-12-29T11:27:13.335Z,99751.33
2022-12-29T11:29:46.153Z,99753.82
2022-12-29T11:32:28.209Z,99750.44
2022-12-29T11:35:02.790Z,99756.73
2022-12-29T11:37:41.338Z,99747.34
2022-12-29T11:40:22.889Z,99740.91
2022-12-29T11:42:57.815Z,99749.84
2022-12-29T11:45:33.660Z,99749.42
2022-12-29T11:48:12.295Z,99750.71
2022-12-29T11:50:50.908Z,99739.61
2022-12-29T11:53:26.308Z,99738.21
2022-12-29T11:56:01.551Z,99735.16
2022-12-29T11:58:35.854Z,99721.08
2022-12-29T12:01:15.386Z,99737.44
2022-12-29T12:03:50.847Z,99742.30
2022-12-29T12:06:25.829Z,99742.86
2022-12-29T12:08:58.555Z,99741.06
2022-12-29T12:11:38.000Z,99727.41
2022-12-29T12:14:20.170Z,99740.60
2022-12-29T12:17:19.980Z,99739.09
2022-12-29T12:20:01.600Z,99740.91
2022-12-29T12:22:37.535Z,99738.50
2022-12-29T12:25:20.171Z,99739.71
2022-12-29T12:27:59.870Z,99737.10
2022-12-29T12:30:40.198Z,99741.84
2022-12-29T12:33:24.474Z,99736.56
2022-12-29T12:36:16.681Z,99742.41
2022-12-29T12:39:00.921Z,99742.14
2022-12-29T12:41:45.722Z,99732.58
2022-12-29T12:44:26.938Z,99728.38
2022-12-29T12:47:15.867Z,99731.52
2022-12-29T12:50:17.412Z,99734.50
2022-12-29T12:53:05.914Z,99725.16
2022-12-29T12:56:05.018Z,99706.73
2022-12-29T12:58:50.575Z,99727.37
2022-12-29T13:01:36.173Z,99725.40
2022-12-29T13:04:31.549Z,99727.39
2022-12-29T13:07:12.753Z,99725.09
2022-12-29T13:09:56.894Z,99729.30
2022-12-29T13:12:38.573Z,99732.50
2022-12-29T13:15:24.008Z,99734.33
2022-12-29T13:18:06.618Z,99738.70
2022-12-29T13:20:44.007Z,99736.48
2022-12-29T13:23:26.922Z,99737.83
2022-12-29T13:26:07.030Z,99740.63
2022-12-29T13:32:15.824Z,99744.96
2022-12-29T13:34:59.204Z,99748.95
2022-12-29T13:37:35.816Z,99748.14
2022-12-29T13:40:45.385Z,99743.66
2022-12-29T13:43:22.383Z,99739.17
2022-12-29T13:46:02.154Z,99740.38
2022-12-29T13:48:44.057Z,99738.71
2022-12-29T13:51:21.386Z,99737.27
2022-12-29T13:54:13.699Z,99707.78
2022-12-29T13:56:53.438Z,99727.25
2022-12-29T13:59:41.448Z,99735.19
2022-12-29T14:02:23.993Z,99740.83
2022-12-29T14:05:05.697Z,99740.73
2022-12-29T14:07:42.057Z,99741.48
2022-12-29T14:10:31.445Z,99741.17
2022-12-29T14:13:16.981Z,99739.48
2022-12-29T14:15:58.921Z,99742.52
2022-12-29T14:18:34.414Z,99742.76
2022-12-29T14:21:19.816Z,99743.56
2022-12-29T14:23:55.036Z,99730.11
2022-12-29T14:27:03.398Z,99747.44
2022-12-29T14:29:48.398Z,99751.63
2022-12-29T14:32:36.779Z,99756.11
2022-12-29T14:35:40.675Z,99755.30
2022-12-29T14:38:21.826Z,99754.58
2022-12-29T14:40:55.504Z,99756.36
2022-12-29T14:43:31.654Z,99751.48
2022-12-29T14:46:05.233Z,99751.02
2022-12-29T14:48:44.892Z,99757.77
2022-12-29T14:51:32.238Z,99753.35
2022-12-29T14:54:37.996Z,99751.75
2022-12-29T14:57:09.888Z,99747.55
2022-12-29T14:59:43.019Z,99741.80
2022-12-29T15:02:22.677Z,99744.86
2022-12-29T15:04:56.173Z,99731.04
2022-12-29T15:07:31.191Z,99747.66
2022-12-29T15:10:09.924Z,99744.48
2022-12-29T15:12:48.995Z,99746.05
2022-12-29T15:15:25.325Z,99746.48
2022-12-29T15:17:58.277Z,99745.33
2022-12-29T15:20:33.869Z,99746.52
2022-12-29T15:23:11.785Z,99748.56
2022-12-29T15:25:53.338Z,99748.67
2022-12-29T15:28:27.981Z,99752.13
2022-12-29T15:31:07.011Z,99752.69
2022-12-29T15:33:44.884Z,99752.24
2022-12-29T15:36:21.218Z,99750.26
2022-12-29T15:38:54.549Z,99735.32
2022-12-29T15:41:59.188Z,99739.86
2022-12-29T15:44:38.579Z,99758.66
2022-12-29T15:47:19.168Z,99764.48
2022-12-29T15:49:55.182Z,99763.38
2022-12-29T15:52:27.944Z,99766.92
2022-12-29T15:55:02.823Z,99770.83
2022-12-29T15:57:46.406Z,99774.10
2022-12-29T16:00:34.443Z,99774.30
2022-12-29T16:03:14.512Z,99771.98
2022-12-29T16:05:54.377Z,99770.50
2022-12-29T16:08:34.858Z,99770.84
2022-12-29T16:11:26.317Z,99771.98
2022-12-29T16:13:59.745Z,99775.85
2022-12-29T16:16:35.639Z,99779.15
2022-12-29T16:19:15.808Z,99774.70
2022-12-29T16:21:49.056Z,99791.21
2022-12-29T16:24:25.858Z,99801.87
2022-12-29T16:27:10.887Z,99799.05
2022-12-29T16:29:44.153Z,99801.02
2022-12-29T16:32:30.266Z,99810.90
2022-12-29T16:35:19.308Z,99817.10
2022-12-29T16:38:09.199Z,99806.46
2022-12-29T16:40:54.158Z,99826.10
2022-12-29T16:43:29.406Z,99829.22
2022-12-29T16:46:32.483Z,99833.11
2022-12-29T16:49:06.437Z,99832.95
2022-12-29T16:51:41.536Z,99832.77
2022-12-29T16:54:24.228Z,99844.99
2022-12-29T16:56:57.778Z,99841.14
2022-12-29T16:59:38.202Z,99840.56
2022-12-29T17:02:17.978Z,99848.58
2022-12-29T17:04:51.659Z,99840.84
2022-12-29T17:07:26.721Z,99841.65
2022-12-29T17:09:59.604Z,99839.80
2022-12-29T17:12:35.395Z,99841.40
2022-12-29T17:15:14.430Z,99840.77
2022-12-29T17:17:49.178Z,99832.35
2022-12-29T17:20:22.917Z,99837.99
2022-12-29T17:22:55.581Z,99822.70
2022-12-29T17:25:32.167Z,99839.35
2022-12-29T17:28:14.115Z,99837.53
2022-12-29T17:30:46.779Z,99836.45
2022-12-29T17:33:22.057Z,99838.27
2022-12-29T17:35:55.938Z,99834.16
2022-12-29T17:38:31.895Z,99841.42
2022-12-29T17:41:05.157Z,99852.67
2022-12-29T17:43:38.386Z,99857.23
2022-12-29T17:46:11.581Z,99853.83
2022-12-29T17:48:49.662Z,99850.48
2022-12-29T17:51:26.391Z,99848.32
2022-12-29T17:53:58.897Z,99851.61
2022-12-29T17:56:31.728Z,99855.60
2022-12-29T17:59:04.611Z,99859.06
2022-12-29T18:01:40.998Z,99859.33
2022-12-29T18:04:18.296Z,99861.03
2022-12-29T18:06:50.907Z,99865.19
2022-12-29T18:09:23.498Z,99860.86
2022-12-29T18:11:56.013Z,99867.50
2022-12-29T18:14:28.654Z,99871.47
2022-12-29T18:17:01.110Z,99871.27
2022-12-29T18:19:36.112Z,99873.29
2022-12-29T18:22:09.823Z,99874.50
2022-12-29T18:24:42.362Z,99877.59
2022-12-29T18:27:17.835Z,99878.93
2022-12-29T18:29:50.953Z,99877.28
2022-12-29T18:32:23.406Z,99861.43
2022-12-29T18:34:55.764Z,99872.09
2022-12-29T18:37:28.324Z,99872.61
2022-12-29T18:40:00.818Z,99881.92
2022-12-29T18:42:33.589Z,99882.10
2022-12-29T18:45:19.048Z,99885.79
2022-12-29T18:47:52.313Z,99888.21
2022-12-29T18:50:24.965Z,99886.92
2022-12-29T18:53:03.544Z,99890.27
2022-12-29T18:55:36.684Z,99894.06
2022-12-29T18:58:09.314Z,99894.76
2022-12-29T19:00:42.187Z,99896.69
2022-12-29T19:03:16.607Z,99895.30
2022-12-29T19:05:49.995Z,99897.79
2022-12-29T19:08:22.672Z,99891.00
2022-12-29T19:10:55.114Z,99894.94
2022-12-29T19:13:29.566Z,99882.59
2022-12-29T19:16:04.060Z,99904.50
2022-12-29T19:18:46.265Z,99906.35
2022-12-29T19:21:22.098Z,99909.40
2022-12-29T19:23:55.078Z,99912.14
2022-12-29T19:26:34.420Z,99918.58
2022-12-29T19:29:09.166Z,99920.79
2022-12-29T19:31:42.002Z,99921.14
2022-12-29T19:34:16.739Z,99922.15
2022-12-29T19:36:49.239Z,99921.18
2022-12-29T19:39:22.188Z,99923.62
2022-12-29T19:41:59.045Z,99924.84
2022-12-29T19:44:34.848Z,99930.55
2022-12-29T19:47:07.522Z,99933.75
2022-12-29T19:49:39.993Z,99935.23
2022-12-29T19:52:12.525Z,99939.20
2022-12-29T19:54:45.242Z,99943.10
2022-12-29T19:57:17.729Z,99943.88
2022-12-29T19:59:50.401Z,99942.09
2022-12-29T20:02:25.788Z,99943.56
2022-12-29T20:04:59.005Z,99939.86
2022-12-29T20:07:31.838Z,99943.40
2022-12-29T20:10:05.519Z,99942.89
2022-12-29T20:12:40.248Z,99944.33
2022-12-29T20:15:15.152Z,99938.58
2022-12-29T20:18:15.470Z,99936.80
2022-12-29T20:20:40.604Z,99936.90
2022-12-29T20:23:12.986Z,99936.12
2022-12-29T20:25:47.001Z,99939.70
2022-12-29T20:28:20.525Z,99941.77
2022-12-29T20:31:02.994Z,99944.11
2022-12-29T20:33:38.457Z,99940.75
2022-12-29T20:36:15.250Z,99942.49
2022-12-29T20:38:49.437Z,99943.92
2022-12-29T20:41:22.916Z,99935.48
2022-12-29T20:43:56.051Z,99935.09
2022-12-29T20:46:35.369Z,99940.46
2022-12-29T20:49:13.782Z,99938.79
2022-12-29T20:54:40.117Z,99945.73
2022-12-29T20:57:12.828Z,99946.48
2022-12-29T20:59:45.775Z,99944.02
2022-12-29T21:02:24.206Z,99948.52
2022-12-29T21:05:22.602Z,99954.52
2022-12-29T21:07:50.392Z,99957.79
2022-12-29T21:10:23.620Z,99957.79
2022-12-29T21:12:56.415Z,99956.42
2022-12-29T21:15:30.127Z,99961.27
2022-12-29T21:18:02.604Z,99959.24
2022-12-29T21:20:35.472Z,99959.08
2022-12-29T21:23:08.969Z,99962.33
2022-12-29T21:25:46.602Z,99962.48
2022-12-29T21:28:19.408Z,99963.99
2022-12-29T21:30:52.665Z,99960.36
2022-12-29T21:33:25.396Z,99958.08
2022-12-29T21:36:04.367Z,99959.79
2022-12-29T21:38:37.277Z,99964.05
2022-12-29T21:41:12.175Z,99958.16
2022-12-29T21:44:08.970Z,99956.83
2022-12-29T21:46:44.116Z,99961.73
2022-12-29T21:49:17.355Z,99956.05
2022-12-29T21:51:54.272Z,99953.27
2022-12-29T21:54:46.363Z,99956.64
2022-12-29T21:57:34.823Z,99963.36
2022-12-29T22:00:28.326Z,99959.64
2022-12-29T22:03:23.170Z,99937.14
2022-12-29T22:06:14.761Z,99960.98
2022-12-29T22:09:05.196Z,99966.00
2022-12-29T22:11:55.388Z,99971.50
2022-12-29T22:14:28.062Z,99975.09
2022-12-29T22:17:01.028Z,99971.12
2022-12-29T22:19:33.548Z,99968.23
2022-12-29T22:22:06.709Z,99972.63
2022-12-29T22:24:39.251Z,99975.66
2022-12-29T22:27:12.255Z,99976.71
2022-12-29T22:29:45.008Z,99978.27
2022-12-29T22:32:18.053Z,99973.95
2022-12-29T22:34:51.579Z,99982.39
2022-12-29T22:37:24.270Z,99983.45
2022-12-29T22:39:56.726Z,99989.27
2022-12-29T22:42:29.509Z,99988.79
2022-12-29T22:45:02.168Z,99987.89
2022-12-29T22:47:34.628Z,99987.16
2022-12-29T22:50:08.460Z,99992.97
2022-12-29T22:52:41.048Z,99991.98
2022-12-29T22:55:14.080Z,99988.98
2022-12-29T22:57:46.581Z,99981.20
2022-12-29T23:00:19.651Z,99980.77
2022-12-29T23:02:52.313Z,99986.25
2022-12-29T23:05:25.010Z,99991.75
2022-12-29T23:07:57.581Z,99993.38
2022-12-29T23:10:29.913Z,99993.63
2022-12-29T23:13:02.366Z,99997.41
2022-12-29T23:15:38.522Z,99997.56
2022-12-29T23:18:11.575Z,100008.29
2022-12-29T23:20:44.786Z,100001.92
2022-12-29T23:23:43.246Z,100008.16
2022-12-29T23:26:23.790Z,100008.73
2022-12-29T23:29:00.291Z,100007.84
2022-12-29T23:31:35.059Z,100007.23
2022-12-29T23:34:09.511Z,100005.74
2022-12-29T23:36:42.359Z,99998.92
2022-12-29T23:39:21.488Z,99999.16
2022-12-29T23:41:54.068Z,100006.98
2022-12-29T23:44:26.800Z,100009.73
2022-12-29T23:46:59.437Z,100005.08
2022-12-29T23:49:32.213Z,99998.80
2022-12-29T23:52:04.741Z,100007.36
2022-12-29T23:54:37.447Z,100008.41
2022-12-29T23:57:09.830Z,100005.77
2022-12-29T23:59:42.324Z,100010.43
